sensor_id;sensor_type;location;lat;lon;timestamp;pressure;altitude;pressure_sealevel;temperature;humidity
51829;BME280;37881;48.024;8.774;2022-12-05T00:01:29;93555.19;;;-0.09;100.00
51829;BME280;37881;48.024;8.774;2022-12-05T00:03:59;93559.91;;;-0.03;100.00
51829;BME280;37881;48.024;8.774;2022-12-05T00:06:28;93569.94;;;-0.03;100.00
51829;BME280;37881;48.024;8.774;2022-12-05T00:08:56;93578.94;;;0.05;100.00
51829;BME280;37881;48.024;8.774;2022-12-05T00:11:25;93582.00;;;0.03;100.00
51829;BME280;37881;48.024;8.774;2022-12-05T00:13:53;93584.03;;;0.10;100.00
51829;BME280;37881;48.024;8.774;2022-12-05T00:16:23;93589.38;;;0.06;100.00
51829;BME280;37881;48.024;8.774;2022-12-05T00:18:51;93584.69;;;0.03;100.00
51829;BME280;37881;48.024;8.774;2022-12-05T00:21:20;93588.03;;;-0.04;100.00
51829;BME280;37881;48.024;8.774;2022-12-05T00:23:47;93587.91;;;-0.11;100.00
51829;BME280;37881;48.024;8.774;2022-12-05T00:26:15;93587.19;;;-0.08;100.00
51829;BME280;37881;48.024;8.774;2022-12-05T00:28:42;93586.69;;;-0.13;100.00
51829;BME280;37881;48.024;8.774;2022-12-05T00:31:11;93583.28;;;-0.10;100.00
51829;BME280;37881;48.024;8.774;2022-12-05T00:33:39;93589.91;;;-0.08;100.00
51829;BME280;37881;48.024;8.774;2022-12-05T00:36:20;93597.56;;;-0.10;100.00
51829;BME280;37881;48.024;8.774;2022-12-05T00:38:47;93596.00;;;-0.11;100.00
51829;BME280;37881;48.024;8.774;2022-12-05T00:41:16;93598.69;;;-0.11;100.00
51829;BME280;37881;48.024;8.774;2022-12-05T00:43:43;93603.94;;;0.02;100.00
51829;BME280;37881;48.024;8.774;2022-12-05T00:46:13;93600.31;;;-0.06;100.00
51829;BME280;37881;48.024;8.774;2022-12-05T00:48:40;93612.75;;;-0.02;100.00
51829;BME280;37881;48.024;8.774;2022-12-05T00:51:16;93607.00;;;0.00;100.00
51829;BME280;37881;48.024;8.774;2022-12-05T00:53:44;93611.53;;;-0.04;100.00
51829;BME280;37881;48.024;8.774;2022-12-05T00:56:13;93612.25;;;-0.07;100.00
51829;BME280;37881;48.024;8.774;2022-12-05T00:58:40;93617.72;;;-0.04;100.00
51829;BME280;37881;48.024;8.774;2022-12-05T01:01:17;93600.22;;;0.10;100.00
51829;BME280;37881;48.024;8.774;2022-12-05T01:03:45;93597.78;;;0.24;100.00
51829;BME280;37881;48.024;8.774;2022-12-05T01:06:14;93605.78;;;0.17;100.00
51829;BME280;37881;48.024;8.774;2022-12-05T01:08:41;93608.28;;;0.06;100.00
51829;BME280;37881;48.024;8.774;2022-12-05T01:11:09;93597.75;;;0.01;100.00
51829;BME280;37881;48.024;8.774;2022-12-05T01:13:36;93583.19;;;0.06;100.00
51829;BME280;37881;48.024;8.774;2022-12-05T01:16:03;93593.53;;;0.00;100.00
51829;BME280;37881;48.024;8.774;2022-12-05T01:18:30;93615.06;;;0.19;100.00
51829;BME280;37881;48.024;8.774;2022-12-05T01:20:57;93634.81;;;0.24;100.00
51829;BME280;37881;48.024;8.774;2022-12-05T01:23:24;93643.31;;;0.26;100.00
51829;BME280;37881;48.024;8.774;2022-12-05T01:25:51;93661.72;;;0.20;100.00
51829;BME280;37881;48.024;8.774;2022-12-05T01:28:18;93692.34;;;0.08;100.00
51829;BME280;37881;48.024;8.774;2022-12-05T01:30:47;93698.84;;;0.07;100.00
51829;BME280;37881;48.024;8.774;2022-12-05T01:33:14;93695.81;;;0.09;100.00
51829;BME280;37881;48.024;8.774;2022-12-05T01:35:42;93694.59;;;0.06;100.00
51829;BME280;37881;48.024;8.774;2022-12-05T01:38:11;93684.84;;;0.02;100.00
51829;BME280;37881;48.024;8.774;2022-12-05T01:40:38;93692.53;;;-0.01;100.00
51829;BME280;37881;48.024;8.774;2022-12-05T01:43:14;93686.53;;;0.06;100.00
51829;BME280;37881;48.024;8.774;2022-12-05T01:45:44;93676.84;;;0.05;100.00
51829;BME280;37881;48.024;8.774;2022-12-05T01:48:19;93684.59;;;0.07;100.00
51829;BME280;37881;48.024;8.774;2022-12-05T01:50:47;93690.25;;;0.02;100.00
51829;BME280;37881;48.024;8.774;2022-12-05T01:53:16;93682.25;;;0.05;100.00
51829;BME280;37881;48.024;8.774;2022-12-05T01:55:44;93676.56;;;0.10;100.00
51829;BME280;37881;48.024;8.774;2022-12-05T01:58:12;93676.34;;;0.19;100.00
51829;BME280;37881;48.024;8.774;2022-12-05T02:00:39;93666.13;;;0.28;100.00
51829;BME280;37881;48.024;8.774;2022-12-05T02:03:08;93676.06;;;0.24;100.00
51829;BME280;37881;48.024;8.774;2022-12-05T02:05:37;93681.69;;;0.15;100.00
51829;BME280;37881;48.024;8.774;2022-12-05T02:08:08;93686.88;;;0.05;100.00
51829;BME280;37881;48.024;8.774;2022-12-05T02:10:41;93700.78;;;0.07;100.00
51829;BME280;37881;48.024;8.774;2022-12-05T02:13:39;93695.03;;;0.08;100.00
51829;BME280;37881;48.024;8.774;2022-12-05T02:16:13;93685.94;;;0.16;100.00
51829;BME280;37881;48.024;8.774;2022-12-05T02:19:03;93683.31;;;0.20;100.00
51829;BME280;37881;48.024;8.774;2022-12-05T02:27:31;93683.31;;;0.20;100.00
51829;BME280;37881;48.024;8.774;2022-12-05T02:32:40;93676.28;;;0.35;100.00
51829;BME280;37881;48.024;8.774;2022-12-05T02:35:15;93683.03;;;0.45;100.00
51829;BME280;37881;48.024;8.774;2022-12-05T02:38:08;93680.31;;;0.45;100.00
51829;BME280;37881;48.024;8.774;2022-12-05T02:43:17;93696.69;;;0.32;100.00
51829;BME280;37881;48.024;8.774;2022-12-05T02:45:48;93685.94;;;0.36;100.00
51829;BME280;37881;48.024;8.774;2022-12-05T02:48:18;93675.63;;;0.42;100.00
51829;BME280;37881;48.024;8.774;2022-12-05T02:50:47;93686.06;;;0.43;100.00
51829;BME280;37881;48.024;8.774;2022-12-05T02:53:16;93682.59;;;0.43;100.00
51829;BME280;37881;48.024;8.774;2022-12-05T02:55:45;93673.06;;;0.49;100.00
51829;BME280;37881;48.024;8.774;2022-12-05T02:58:22;93675.13;;;0.55;100.00
51829;BME280;37881;48.024;8.774;2022-12-05T03:00:56;93679.91;;;0.43;100.00
51829;BME280;37881;48.024;8.774;2022-12-05T03:03:24;93694.59;;;0.26;100.00
51829;BME280;37881;48.024;8.774;2022-12-05T03:05:59;93692.81;;;0.14;100.00
51829;BME280;37881;48.024;8.774;2022-12-05T03:08:41;93686.44;;;0.22;100.00
51829;BME280;37881;48.024;8.774;2022-12-05T03:11:10;93691.63;;;0.31;100.00
51829;BME280;37881;48.024;8.774;2022-12-05T03:13:50;93688.06;;;0.27;100.00
51829;BME280;37881;48.024;8.774;2022-12-05T03:16:22;93696.53;;;0.25;100.00
51829;BME280;37881;48.024;8.774;2022-12-05T03:18:57;93694.91;;;0.21;100.00
51829;BME280;37881;48.024;8.774;2022-12-05T03:21:39;93695.88;;;0.32;100.00
51829;BME280;37881;48.024;8.774;2022-12-05T03:24:11;93702.19;;;0.39;100.00
51829;BME280;37881;48.024;8.774;2022-12-05T03:26:49;93708.25;;;0.33;100.00
51829;BME280;37881;48.024;8.774;2022-12-05T03:29:41;93698.22;;;0.33;100.00
51829;BME280;37881;48.024;8.774;2022-12-05T03:32:14;93706.25;;;0.30;100.00
51829;BME280;37881;48.024;8.774;2022-12-05T03:37:33;93709.94;;;0.41;100.00
51829;BME280;37881;48.024;8.774;2022-12-05T03:43:09;93712.00;;;0.48;100.00
51829;BME280;37881;48.024;8.774;2022-12-05T03:48:15;93710.00;;;0.64;100.00
51829;BME280;37881;48.024;8.774;2022-12-05T03:50:46;93710.91;;;0.52;100.00
51829;BME280;37881;48.024;8.774;2022-12-05T03:53:25;93713.69;;;0.56;100.00
51829;BME280;37881;48.024;8.774;2022-12-05T03:56:03;93708.44;;;0.44;100.00
51829;BME280;37881;48.024;8.774;2022-12-05T03:58:47;93714.50;;;0.56;100.00
51829;BME280;37881;48.024;8.774;2022-12-05T04:01:17;93706.81;;;0.58;100.00
51829;BME280;37881;48.024;8.774;2022-12-05T04:03:55;93718.66;;;0.73;100.00
51829;BME280;37881;48.024;8.774;2022-12-05T04:06:28;93717.50;;;0.74;100.00
51829;BME280;37881;48.024;8.774;2022-12-05T04:09:05;93720.94;;;0.52;100.00
51829;BME280;37881;48.024;8.774;2022-12-05T04:11:46;93730.91;;;0.48;100.00
51829;BME280;37881;48.024;8.774;2022-12-05T04:14:21;93724.88;;;0.35;100.00
51829;BME280;37881;48.024;8.774;2022-12-05T04:16:53;93738.28;;;0.31;100.00
51829;BME280;37881;48.024;8.774;2022-12-05T04:19:46;93738.22;;;0.28;100.00
51829;BME280;37881;48.024;8.774;2022-12-05T04:22:32;93737.09;;;0.29;100.00
51829;BME280;37881;48.024;8.774;2022-12-05T04:25:01;93743.00;;;0.34;100.00
51829;BME280;37881;48.024;8.774;2022-12-05T04:27:53;93729.38;;;0.50;100.00
51829;BME280;37881;48.024;8.774;2022-12-05T04:30:27;93726.75;;;0.54;100.00
51829;BME280;37881;48.024;8.774;2022-12-05T04:33:16;93733.31;;;0.53;100.00
51829;BME280;37881;48.024;8.774;2022-12-05T04:36:06;93729.38;;;0.50;100.00
51829;BME280;37881;48.024;8.774;2022-12-05T04:38:47;93758.66;;;0.48;100.00
51829;BME280;37881;48.024;8.774;2022-12-05T04:41:31;93772.31;;;0.55;100.00
51829;BME280;37881;48.024;8.774;2022-12-05T04:44:04;93773.66;;;0.46;100.00
51829;BME280;37881;48.024;8.774;2022-12-05T04:46:33;93782.09;;;0.44;100.00
51829;BME280;37881;48.024;8.774;2022-12-05T04:49:02;93783.59;;;0.42;100.00
51829;BME280;37881;48.024;8.774;2022-12-05T04:51:34;93768.19;;;0.42;100.00
51829;BME280;37881;48.024;8.774;2022-12-05T04:54:33;93762.22;;;0.52;100.00
51829;BME280;37881;48.024;8.774;2022-12-05T04:57:21;93740.06;;;0.63;100.00
51829;BME280;37881;48.024;8.774;2022-12-05T04:59:49;93762.88;;;0.65;100.00
51829;BME280;37881;48.024;8.774;2022-12-05T05:02:21;93785.19;;;0.43;100.00
51829;BME280;37881;48.024;8.774;2022-12-05T05:04:52;93792.56;;;0.46;100.00
51829;BME280;37881;48.024;8.774;2022-12-05T05:07:19;93785.75;;;0.52;100.00
51829;BME280;37881;48.024;8.774;2022-12-05T05:09:45;93790.88;;;0.57;100.00
51829;BME280;37881;48.024;8.774;2022-12-05T05:12:12;93787.09;;;0.62;100.00
51829;BME280;37881;48.024;8.774;2022-12-05T05:14:44;93782.13;;;0.64;100.00
51829;BME280;37881;48.024;8.774;2022-12-05T05:17:11;93785.59;;;0.64;100.00
51829;BME280;37881;48.024;8.774;2022-12-05T05:19:38;93779.50;;;0.67;100.00
51829;BME280;37881;48.024;8.774;2022-12-05T05:22:04;93783.69;;;0.65;100.00
51829;BME280;37881;48.024;8.774;2022-12-05T05:24:31;93777.78;;;0.78;100.00
51829;BME280;37881;48.024;8.774;2022-12-05T05:26:58;93787.19;;;0.85;100.00
51829;BME280;37881;48.024;8.774;2022-12-05T05:29:24;93791.22;;;0.75;100.00
51829;BME280;37881;48.024;8.774;2022-12-05T05:31:51;93803.88;;;0.71;100.00
51829;BME280;37881;48.024;8.774;2022-12-05T05:34:18;93806.50;;;0.67;100.00
51829;BME280;37881;48.024;8.774;2022-12-05T05:36:44;93803.38;;;0.65;100.00
51829;BME280;37881;48.024;8.774;2022-12-05T05:39:13;93804.16;;;0.66;100.00
51829;BME280;37881;48.024;8.774;2022-12-05T05:41:41;93804.94;;;0.66;100.00
51829;BME280;37881;48.024;8.774;2022-12-05T05:44:08;93811.84;;;0.64;100.00
51829;BME280;37881;48.024;8.774;2022-12-05T05:46:35;93812.91;;;0.59;100.00
51829;BME280;37881;48.024;8.774;2022-12-05T05:49:03;93810.19;;;0.59;100.00
51829;BME280;37881;48.024;8.774;2022-12-05T05:51:30;93816.03;;;0.61;100.00
51829;BME280;37881;48.024;8.774;2022-12-05T05:53:58;93814.69;;;0.71;100.00
51829;BME280;37881;48.024;8.774;2022-12-05T05:56:26;93802.09;;;0.78;100.00
51829;BME280;37881;48.024;8.774;2022-12-05T05:58:59;93798.69;;;0.82;100.00
51829;BME280;37881;48.024;8.774;2022-12-05T06:01:26;93803.09;;;0.90;100.00
51829;BME280;37881;48.024;8.774;2022-12-05T06:03:53;93814.19;;;0.85;100.00
51829;BME280;37881;48.024;8.774;2022-12-05T06:06:21;93804.44;;;0.80;100.00
51829;BME280;37881;48.024;8.774;2022-12-05T06:08:48;93823.66;;;0.75;100.00
51829;BME280;37881;48.024;8.774;2022-12-05T06:11:20;93830.53;;;0.72;100.00
51829;BME280;37881;48.024;8.774;2022-12-05T06:13:55;93826.69;;;0.73;100.00
51829;BME280;37881;48.024;8.774;2022-12-05T06:16:23;93827.97;;;0.79;100.00
51829;BME280;37881;48.024;8.774;2022-12-05T06:18:51;93831.19;;;0.85;100.00
51829;BME280;37881;48.024;8.774;2022-12-05T06:21:17;93842.06;;;0.89;100.00
51829;BME280;37881;48.024;8.774;2022-12-05T06:23:44;93857.00;;;0.83;100.00
51829;BME280;37881;48.024;8.774;2022-12-05T06:26:13;93855.56;;;0.89;100.00
51829;BME280;37881;48.024;8.774;2022-12-05T06:28:41;93858.97;;;0.86;100.00
51829;BME280;37881;48.024;8.774;2022-12-05T06:31:09;93861.66;;;0.86;100.00
51829;BME280;37881;48.024;8.774;2022-12-05T06:33:37;93854.41;;;0.90;100.00
51829;BME280;37881;48.024;8.774;2022-12-05T06:36:09;93851.50;;;0.98;100.00
51829;BME280;37881;48.024;8.774;2022-12-05T06:38:37;93855.03;;;1.03;100.00
51829;BME280;37881;48.024;8.774;2022-12-05T06:41:10;93855.13;;;1.06;100.00
51829;BME280;37881;48.024;8.774;2022-12-05T06:43:39;93862.31;;;1.18;100.00
51829;BME280;37881;48.024;8.774;2022-12-05T06:46:07;93867.84;;;1.25;100.00
51829;BME280;37881;48.024;8.774;2022-12-05T06:48:34;93866.09;;;1.13;100.00
51829;BME280;37881;48.024;8.774;2022-12-05T06:51:01;93868.06;;;1.16;100.00
51829;BME280;37881;48.024;8.774;2022-12-05T06:53:27;93866.09;;;1.13;100.00
51829;BME280;37881;48.024;8.774;2022-12-05T06:55:56;93863.22;;;1.26;100.00
51829;BME280;37881;48.024;8.774;2022-12-05T06:58:23;93862.88;;;1.27;100.00
51829;BME280;37881;48.024;8.774;2022-12-05T07:00:50;93857.56;;;1.11;100.00
51829;BME280;37881;48.024;8.774;2022-12-05T07:03:36;93859.19;;;1.16;100.00
51829;BME280;37881;48.024;8.774;2022-12-05T07:06:04;93861.38;;;1.10;100.00
51829;BME280;37881;48.024;8.774;2022-12-05T07:08:31;93859.75;;;1.06;100.00
51829;BME280;37881;48.024;8.774;2022-12-05T07:10:59;93863.72;;;1.12;100.00
51829;BME280;37881;48.024;8.774;2022-12-05T07:13:25;93864.31;;;1.21;100.00
51829;BME280;37881;48.024;8.774;2022-12-05T07:15:52;93865.84;;;1.22;100.00
51829;BME280;37881;48.024;8.774;2022-12-05T07:18:19;93870.75;;;1.16;100.00
51829;BME280;37881;48.024;8.774;2022-12-05T07:20:55;93883.00;;;1.10;100.00
51829;BME280;37881;48.024;8.774;2022-12-05T07:23:38;93880.25;;;1.07;100.00
51829;BME280;37881;48.024;8.774;2022-12-05T07:26:06;93886.09;;;1.09;100.00
51829;BME280;37881;48.024;8.774;2022-12-05T07:28:33;93887.28;;;1.11;100.00
51829;BME280;37881;48.024;8.774;2022-12-05T07:31:02;93887.28;;;1.11;100.00
51829;BME280;37881;48.024;8.774;2022-12-05T07:33:29;93885.44;;;1.15;100.00
51829;BME280;37881;48.024;8.774;2022-12-05T07:36:04;93884.84;;;1.26;100.00
51829;BME280;37881;48.024;8.774;2022-12-05T07:38:32;93888.91;;;1.35;100.00
51829;BME280;37881;48.024;8.774;2022-12-05T07:41:03;93898.03;;;1.27;100.00
51829;BME280;37881;48.024;8.774;2022-12-05T07:43:37;93892.47;;;1.20;100.00
51829;BME280;37881;48.024;8.774;2022-12-05T07:46:05;93885.97;;;1.25;100.00
51829;BME280;37881;48.024;8.774;2022-12-05T07:48:32;93878.88;;;1.36;100.00
51829;BME280;37881;48.024;8.774;2022-12-05T07:51:03;93877.47;;;1.03;100.00
51829;BME280;37881;48.024;8.774;2022-12-05T07:53:31;93885.66;;;1.07;100.00
51829;BME280;37881;48.024;8.774;2022-12-05T07:55:59;93880.72;;;1.12;100.00
51829;BME280;37881;48.024;8.774;2022-12-05T07:58:28;93904.69;;;1.33;100.00
51829;BME280;37881;48.024;8.774;2022-12-05T08:00:55;93920.63;;;1.38;100.00
51829;BME280;37881;48.024;8.774;2022-12-05T08:03:22;93929.16;;;1.40;100.00
51829;BME280;37881;48.024;8.774;2022-12-05T08:05:49;93938.94;;;1.45;100.00
51829;BME280;37881;48.024;8.774;2022-12-05T08:08:16;93941.41;;;1.34;100.00
51829;BME280;37881;48.024;8.774;2022-12-05T08:10:43;93933.38;;;1.38;100.00
51829;BME280;37881;48.024;8.774;2022-12-05T08:13:09;93930.25;;;1.36;100.00
51829;BME280;37881;48.024;8.774;2022-12-05T08:15:36;93935.06;;;1.27;100.00
51829;BME280;37881;48.024;8.774;2022-12-05T08:18:03;93938.16;;;1.25;100.00
51829;BME280;37881;48.024;8.774;2022-12-05T08:20:29;93939.63;;;1.23;100.00
51829;BME280;37881;48.024;8.774;2022-12-05T08:22:56;93947.31;;;1.20;100.00
51829;BME280;37881;48.024;8.774;2022-12-05T08:25:23;93951.22;;;1.23;100.00
51829;BME280;37881;48.024;8.774;2022-12-05T08:27:49;93951.50;;;1.18;100.00
51829;BME280;37881;48.024;8.774;2022-12-05T08:30:16;93958.41;;;1.15;100.00
51829;BME280;37881;48.024;8.774;2022-12-05T08:32:43;93946.25;;;1.25;100.00
51829;BME280;37881;48.024;8.774;2022-12-05T08:35:10;93937.28;;;1.21;100.00
51829;BME280;37881;48.024;8.774;2022-12-05T08:37:37;93938.69;;;1.34;100.00
51829;BME280;37881;48.024;8.774;2022-12-05T08:40:04;93945.75;;;1.39;100.00
51829;BME280;37881;48.024;8.774;2022-12-05T08:42:31;93933.44;;;1.42;100.00
51829;BME280;37881;48.024;8.774;2022-12-05T08:44:58;93934.09;;;1.35;100.00
51829;BME280;37881;48.024;8.774;2022-12-05T08:47:25;93942.75;;;1.44;100.00
51829;BME280;37881;48.024;8.774;2022-12-05T08:49:52;93945.47;;;1.44;100.00
51829;BME280;37881;48.024;8.774;2022-12-05T08:52:19;93950.94;;;1.48;100.00
51829;BME280;37881;48.024;8.774;2022-12-05T08:54:47;93948.59;;;1.46;100.00
51829;BME280;37881;48.024;8.774;2022-12-05T08:57:13;93959.41;;;1.46;100.00
51829;BME280;37881;48.024;8.774;2022-12-05T08:59:40;93969.72;;;1.40;100.00
51829;BME280;37881;48.024;8.774;2022-12-05T09:02:08;93972.84;;;1.43;100.00
51829;BME280;37881;48.024;8.774;2022-12-05T09:04:35;93979.25;;;1.34;100.00
51829;BME280;37881;48.024;8.774;2022-12-05T09:07:01;93981.03;;;1.27;100.00
51829;BME280;37881;48.024;8.774;2022-12-05T09:09:29;93981.09;;;1.30;100.00
51829;BME280;37881;48.024;8.774;2022-12-05T09:11:55;93973.72;;;1.27;100.00
51829;BME280;37881;48.024;8.774;2022-12-05T09:14:23;93973.00;;;1.30;100.00
51829;BME280;37881;48.024;8.774;2022-12-05T09:16:50;93973.28;;;1.25;100.00
51829;BME280;37881;48.024;8.774;2022-12-05T09:19:19;93969.78;;;1.25;100.00
51829;BME280;37881;48.024;8.774;2022-12-05T09:21:51;93979.56;;;1.29;100.00
51829;BME280;37881;48.024;8.774;2022-12-05T09:24:18;93981.59;;;1.36;100.00
51829;BME280;37881;48.024;8.774;2022-12-05T09:26:45;93983.88;;;1.34;100.00
51829;BME280;37881;48.024;8.774;2022-12-05T09:29:12;93988.38;;;1.46;100.00
51829;BME280;37881;48.024;8.774;2022-12-05T09:31:44;93986.03;;;1.44;100.00
51829;BME280;37881;48.024;8.774;2022-12-05T09:34:12;93993.66;;;1.58;100.00
51829;BME280;37881;48.024;8.774;2022-12-05T09:36:40;93989.66;;;1.52;100.00
51829;BME280;37881;48.024;8.774;2022-12-05T09:39:09;94000.56;;;1.55;100.00
51829;BME280;37881;48.024;8.774;2022-12-05T09:45:11;94010.88;;;1.69;100.00
51829;BME280;37881;48.024;8.774;2022-12-05T10:00:44;93997.53;;;1.99;100.00
51829;BME280;37881;48.024;8.774;2022-12-05T10:03:17;94002.69;;;1.85;100.00
51829;BME280;37881;48.024;8.774;2022-12-05T10:06:00;93998.97;;;1.93;100.00
51829;BME280;37881;48.024;8.774;2022-12-05T10:11:33;93994.50;;;2.05;100.00
51829;BME280;37881;48.024;8.774;2022-12-05T10:16:57;93980.50;;;1.99;100.00
51829;BME280;37881;48.024;8.774;2022-12-05T10:19:31;93985.84;;;1.95;100.00
51829;BME280;37881;48.024;8.774;2022-12-05T10:22:19;93982.00;;;1.96;100.00
51829;BME280;37881;48.024;8.774;2022-12-05T10:24:51;93981.53;;;2.14;100.00
51829;BME280;37881;48.024;8.774;2022-12-05T10:28:10;93985.63;;;2.04;100.00
51829;BME280;37881;48.024;8.774;2022-12-05T10:30:20;93985.38;;;1.90;100.00
51829;BME280;37881;48.024;8.774;2022-12-05T10:32:54;93988.34;;;1.85;100.00
51829;BME280;37881;48.024;8.774;2022-12-05T10:35:24;93990.53;;;1.98;100.00
51829;BME280;37881;48.024;8.774;2022-12-05T10:37:55;93982.00;;;1.96;100.00
51829;BME280;37881;48.024;8.774;2022-12-05T10:40:34;93986.72;;;1.99;100.00
51829;BME280;37881;48.024;8.774;2022-12-05T10:43:03;93983.44;;;1.90;100.00
51829;BME280;37881;48.024;8.774;2022-12-05T10:45:30;93980.63;;;2.06;100.00
51829;BME280;37881;48.024;8.774;2022-12-05T10:47:57;93984.84;;;2.04;100.00
51829;BME280;37881;48.024;8.774;2022-12-05T10:50:29;93977.19;;;2.09;100.00
51829;BME280;37881;48.024;8.774;2022-12-05T10:52:58;93976.72;;;2.27;100.00
51829;BME280;37881;48.024;8.774;2022-12-05T10:55:35;93976.84;;;2.34;100.00
51829;BME280;37881;48.024;8.774;2022-12-05T10:58:19;93968.00;;;2.37;100.00
51829;BME280;37881;48.024;8.774;2022-12-05T11:00:52;93967.88;;;2.53;100.00
51829;BME280;37881;48.024;8.774;2022-12-05T11:03:40;93963.25;;;2.30;100.00
51829;BME280;37881;48.024;8.774;2022-12-05T11:06:27;93970.53;;;2.26;100.00
51829;BME280;37881;48.024;8.774;2022-12-05T11:09:13;93968.31;;;2.32;100.00
51829;BME280;37881;48.024;8.774;2022-12-05T11:11:56;93960.94;;;2.55;100.00
51829;BME280;37881;48.024;8.774;2022-12-05T11:14:25;93958.34;;;2.63;100.00
51829;BME280;37881;48.024;8.774;2022-12-05T11:16:57;93956.00;;;2.88;100.00
51829;BME280;37881;48.024;8.774;2022-12-05T11:21:53;93967.09;;;2.52;100.00
51829;BME280;37881;48.024;8.774;2022-12-05T11:27:00;93963.34;;;2.60;100.00
51829;BME280;37881;48.024;8.774;2022-12-05T11:30:22;93959.53;;;2.65;100.00
51829;BME280;37881;48.024;8.774;2022-12-05T11:32:39;93949.75;;;2.84;100.00
51829;BME280;37881;48.024;8.774;2022-12-05T11:40:47;93948.44;;;3.00;99.92
51829;BME280;37881;48.024;8.774;2022-12-05T11:43:34;93950.38;;;3.00;100.00
51829;BME280;37881;48.024;8.774;2022-12-05T11:46:09;93948.03;;;2.98;99.36
51829;BME280;37881;48.024;8.774;2022-12-05T11:49:06;93953.22;;;3.11;99.97
51829;BME280;37881;48.024;8.774;2022-12-05T12:03:34;93952.63;;;2.94;100.00
51829;BME280;37881;48.024;8.774;2022-12-05T12:06:26;93957.63;;;2.92;100.00
51829;BME280;37881;48.024;8.774;2022-12-05T12:10:15;93950.00;;;2.75;100.00
51829;BME280;37881;48.024;8.774;2022-12-05T12:12:28;93960.97;;;2.82;100.00
51829;BME280;37881;48.024;8.774;2022-12-05T12:15:08;93952.44;;;2.84;100.00
51829;BME280;37881;48.024;8.774;2022-12-05T12:17:54;93948.41;;;2.70;100.00
51829;BME280;37881;48.024;8.774;2022-12-05T12:20:36;93950.34;;;2.70;100.00
51829;BME280;37881;48.024;8.774;2022-12-05T12:23:42;93952.31;;;2.73;100.00
51829;BME280;37881;48.024;8.774;2022-12-05T12:32:31;93953.59;;;3.09;99.79
51829;BME280;37881;48.024;8.774;2022-12-05T12:40:53;93940.25;;;2.97;99.29
51829;BME280;37881;48.024;8.774;2022-12-05T12:49:18;93942.53;;;3.22;98.34
51829;BME280;37881;48.024;8.774;2022-12-05T12:51:52;93930.59;;;3.26;98.20
51829;BME280;37881;48.024;8.774;2022-12-05T13:03:50;93929.97;;;3.40;96.88
51829;BME280;37881;48.024;8.774;2022-12-05T13:06:27;93922.84;;;3.62;96.16
51829;BME280;37881;48.024;8.774;2022-12-05T13:08:58;93924.25;;;3.83;94.07
51829;BME280;37881;48.024;8.774;2022-12-05T13:11:32;93930.50;;;3.90;93.19
51829;BME280;37881;48.024;8.774;2022-12-05T13:14:01;93926.41;;;3.70;92.81
51829;BME280;37881;48.024;8.774;2022-12-05T13:16:40;93920.44;;;3.53;93.59
51829;BME280;37881;48.024;8.774;2022-12-05T13:22:07;93928.56;;;3.53;95.23
51829;BME280;37881;48.024;8.774;2022-12-05T13:24:34;93937.16;;;3.25;95.96
51829;BME280;37881;48.024;8.774;2022-12-05T13:27:06;93941.38;;;3.23;96.08
51829;BME280;37881;48.024;8.774;2022-12-05T13:29:38;93934.78;;;3.24;95.11
51829;BME280;37881;48.024;8.774;2022-12-05T13:32:23;93937.19;;;3.29;95.32
51829;BME280;37881;48.024;8.774;2022-12-05T13:34:51;93931.94;;;3.43;95.73
51829;BME280;37881;48.024;8.774;2022-12-05T13:37:27;93943.63;;;3.47;93.79
51829;BME280;37881;48.024;8.774;2022-12-05T13:40:29;93938.81;;;3.67;93.03
51829;BME280;37881;48.024;8.774;2022-12-05T13:43:20;93942.75;;;3.73;93.29
51829;BME280;37881;48.024;8.774;2022-12-05T13:46:07;93942.22;;;3.60;92.00
51829;BME280;37881;48.024;8.774;2022-12-05T13:48:37;93948.63;;;3.45;92.10
51829;BME280;37881;48.024;8.774;2022-12-05T13:51:21;93946.44;;;3.54;91.91
51829;BME280;37881;48.024;8.774;2022-12-05T13:54:19;93941.72;;;3.51;92.16
51829;BME280;37881;48.024;8.774;2022-12-05T13:56:57;93941.47;;;3.30;92.26
51829;BME280;37881;48.024;8.774;2022-12-05T13:59:58;93944.59;;;3.32;93.73
51829;BME280;37881;48.024;8.774;2022-12-05T14:12:59;93930.31;;;3.69;92.68
51829;BME280;37881;48.024;8.774;2022-12-05T14:15:35;93939.09;;;3.58;92.30
51829;BME280;37881;48.024;8.774;2022-12-05T14:21:07;93938.97;;;3.48;92.11
51829;BME280;37881;48.024;8.774;2022-12-05T14:27:09;93937.25;;;3.32;90.74
51829;BME280;37881;48.024;8.774;2022-12-05T14:30:00;93941.50;;;3.33;90.48
51829;BME280;37881;48.024;8.774;2022-12-05T14:32:30;93946.47;;;3.28;89.99
51829;BME280;37881;48.024;8.774;2022-12-05T14:35:16;93941.75;;;3.21;91.19
51829;BME280;37881;48.024;8.774;2022-12-05T14:37:50;93947.06;;;3.14;91.76
51829;BME280;37881;48.024;8.774;2022-12-05T14:40:39;93944.78;;;3.16;90.78
51829;BME280;37881;48.024;8.774;2022-12-05T14:50:47;93944.78;;;2.89;91.00
51829;BME280;37881;48.024;8.774;2022-12-05T14:55:43;93937.63;;;2.74;92.34
51829;BME280;37881;48.024;8.774;2022-12-05T14:58:16;93932.97;;;2.74;93.15
51829;BME280;37881;48.024;8.774;2022-12-05T15:00:45;93938.03;;;2.76;92.74
51829;BME280;37881;48.024;8.774;2022-12-05T15:03:24;93934.94;;;2.77;91.79
51829;BME280;37881;48.024;8.774;2022-12-05T15:05:55;93937.56;;;2.70;92.43
51829;BME280;37881;48.024;8.774;2022-12-05T15:08:33;93935.53;;;2.90;92.13
51829;BME280;37881;48.024;8.774;2022-12-05T15:11:06;93944.78;;;2.89;92.33
51829;BME280;37881;48.024;8.774;2022-12-05T15:13:33;93936.72;;;2.93;92.10
51829;BME280;37881;48.024;8.774;2022-12-05T15:16:05;93943.88;;;2.78;92.89
51829;BME280;37881;48.024;8.774;2022-12-05T15:18:37;93949.94;;;2.71;92.92
51829;BME280;37881;48.024;8.774;2022-12-05T15:26:25;93950.41;;;2.50;94.90
51829;BME280;37881;48.024;8.774;2022-12-05T15:29:15;93953.19;;;2.54;94.52
51829;BME280;37881;48.024;8.774;2022-12-05T15:34:29;93972.66;;;2.63;95.23
51829;BME280;37881;48.024;8.774;2022-12-05T15:37:10;93969.81;;;2.52;96.38
51829;BME280;37881;48.024;8.774;2022-12-05T15:39:58;93976.13;;;2.60;96.76
51829;BME280;37881;48.024;8.774;2022-12-05T15:42:26;93979.44;;;2.50;96.72